sensor_id;sensor_type;location;lat;lon;timestamp;P1;durP1;ratioP1;P2;durP2;ratioP2
55706;SDS011;41608;45.384;20.394;2022-11-20T00:00:36;33.40;;;19.63;;
55706;SDS011;41608;45.384;20.394;2022-11-20T00:03:02;30.08;;;18.13;;
55706;SDS011;41608;45.384;20.394;2022-11-20T00:05:28;33.22;;;15.60;;
55706;SDS011;41608;45.384;20.394;2022-11-20T00:07:54;25.42;;;14.25;;
55706;SDS011;41608;45.384;20.394;2022-11-20T00:10:20;28.27;;;15.27;;
55706;SDS011;41608;45.384;20.394;2022-11-20T00:12:46;22.88;;;14.75;;
55706;SDS011;41608;45.384;20.394;2022-11-20T00:15:12;17.25;;;12.45;;
55706;SDS011;41608;45.384;20.394;2022-11-20T00:17:39;15.18;;;9.70;;
55706;SDS011;41608;45.384;20.394;2022-11-20T00:20:05;25.38;;;15.95;;
55706;SDS011;41608;45.384;20.394;2022-11-20T00:22:31;30.02;;;17.40;;
55706;SDS011;41608;45.384;20.394;2022-11-20T00:24:57;25.83;;;12.95;;
55706;SDS011;41608;45.384;20.394;2022-11-20T00:27:23;27.48;;;17.92;;
55706;SDS011;41608;45.384;20.394;2022-11-20T00:29:49;30.60;;;16.58;;
55706;SDS011;41608;45.384;20.394;2022-11-20T00:32:15;16.17;;;8.23;;
55706;SDS011;41608;45.384;20.394;2022-11-20T00:34:41;26.33;;;17.15;;
55706;SDS011;41608;45.384;20.394;2022-11-20T00:37:07;18.40;;;9.73;;
55706;SDS011;41608;45.384;20.394;2022-11-20T00:39:33;29.27;;;17.90;;
55706;SDS011;41608;45.384;20.394;2022-11-20T00:41:59;31.20;;;18.05;;
55706;SDS011;41608;45.384;20.394;2022-11-20T00:44:25;23.60;;;14.30;;
55706;SDS011;41608;45.384;20.394;2022-11-20T00:46:51;24.23;;;15.27;;
55706;SDS011;41608;45.384;20.394;2022-11-20T00:49:17;20.05;;;10.93;;
55706;SDS011;41608;45.384;20.394;2022-11-20T00:51:44;30.00;;;15.80;;
55706;SDS011;41608;45.384;20.394;2022-11-20T00:54:10;17.42;;;10.65;;
55706;SDS011;41608;45.384;20.394;2022-11-20T00:56:36;28.92;;;18.80;;
55706;SDS011;41608;45.384;20.394;2022-11-20T00:59:02;26.48;;;15.65;;
55706;SDS011;41608;45.384;20.394;2022-11-20T01:01:28;30.80;;;19.27;;
55706;SDS011;41608;45.384;20.394;2022-11-20T01:03:55;22.27;;;12.77;;
55706;SDS011;41608;45.384;20.394;2022-11-20T01:06:29;31.27;;;16.20;;
55706;SDS011;41608;45.384;20.394;2022-11-20T01:08:56;26.52;;;16.88;;
55706;SDS011;41608;45.384;20.394;2022-11-20T01:11:24;12.88;;;8.20;;
55706;SDS011;41608;45.384;20.394;2022-11-20T01:13:50;27.50;;;18.92;;
55706;SDS011;41608;45.384;20.394;2022-11-20T01:16:18;27.80;;;17.10;;
55706;SDS011;41608;45.384;20.394;2022-11-20T01:18:46;22.55;;;12.07;;
55706;SDS011;41608;45.384;20.394;2022-11-20T01:21:16;28.45;;;17.17;;
55706;SDS011;41608;45.384;20.394;2022-11-20T01:23:43;26.17;;;15.75;;
55706;SDS011;41608;45.384;20.394;2022-11-20T01:26:10;26.85;;;16.42;;
55706;SDS011;41608;45.384;20.394;2022-11-20T01:28:38;32.10;;;19.08;;
55706;SDS011;41608;45.384;20.394;2022-11-20T01:31:15;23.88;;;13.70;;
55706;SDS011;41608;45.384;20.394;2022-11-20T01:33:41;25.55;;;16.30;;
55706;SDS011;41608;45.384;20.394;2022-11-20T01:36:08;20.45;;;9.98;;
55706;SDS011;41608;45.384;20.394;2022-11-20T01:38:35;16.30;;;10.15;;
55706;SDS011;41608;45.384;20.394;2022-11-20T01:41:01;19.27;;;9.57;;
55706;SDS011;41608;45.384;20.394;2022-11-20T01:43:27;23.58;;;14.15;;
55706;SDS011;41608;45.384;20.394;2022-11-20T01:48:42;18.90;;;9.23;;
55706;SDS011;41608;45.384;20.394;2022-11-20T01:51:12;17.30;;;11.38;;
55706;SDS011;41608;45.384;20.394;2022-11-20T01:53:42;20.67;;;13.85;;
55706;SDS011;41608;45.384;20.394;2022-11-20T01:56:09;20.60;;;12.45;;
55706;SDS011;41608;45.384;20.394;2022-11-20T01:58:36;14.43;;;9.57;;
55706;SDS011;41608;45.384;20.394;2022-11-20T02:01:04;15.05;;;8.70;;
55706;SDS011;41608;45.384;20.394;2022-11-20T02:03:30;16.08;;;9.85;;
55706;SDS011;41608;45.384;20.394;2022-11-20T02:08:23;22.00;;;14.82;;
55706;SDS011;41608;45.384;20.394;2022-11-20T02:10:49;19.10;;;12.30;;
55706;SDS011;41608;45.384;20.394;2022-11-20T02:13:15;25.13;;;14.55;;
55706;SDS011;41608;45.384;20.394;2022-11-20T02:16:00;18.27;;;12.25;;
55706;SDS011;41608;45.384;20.394;2022-11-20T02:18:27;22.50;;;14.82;;
55706;SDS011;41608;45.384;20.394;2022-11-20T02:20:55;17.98;;;11.82;;
55706;SDS011;41608;45.384;20.394;2022-11-20T02:23:26;20.58;;;12.93;;
55706;SDS011;41608;45.384;20.394;2022-11-20T02:25:54;21.05;;;13.02;;
55706;SDS011;41608;45.384;20.394;2022-11-20T02:28:21;19.80;;;11.68;;
55706;SDS011;41608;45.384;20.394;2022-11-20T02:30:47;21.25;;;13.98;;
55706;SDS011;41608;45.384;20.394;2022-11-20T02:33:13;22.27;;;12.98;;
55706;SDS011;41608;45.384;20.394;2022-11-20T02:35:41;15.05;;;8.43;;
55706;SDS011;41608;45.384;20.394;2022-11-20T02:38:07;21.23;;;13.35;;
55706;SDS011;41608;45.384;20.394;2022-11-20T02:40:33;18.42;;;12.48;;
55706;SDS011;41608;45.384;20.394;2022-11-20T02:42:59;24.42;;;14.50;;
55706;SDS011;41608;45.384;20.394;2022-11-20T02:45:25;21.38;;;14.02;;
55706;SDS011;41608;45.384;20.394;2022-11-20T02:47:51;22.95;;;11.93;;
55706;SDS011;41608;45.384;20.394;2022-11-20T02:50:17;22.08;;;15.00;;
55706;SDS011;41608;45.384;20.394;2022-11-20T02:52:43;20.08;;;13.38;;
55706;SDS011;41608;45.384;20.394;2022-11-20T02:55:09;21.33;;;12.48;;
55706;SDS011;41608;45.384;20.394;2022-11-20T02:57:35;23.50;;;12.48;;
55706;SDS011;41608;45.384;20.394;2022-11-20T03:00:02;22.25;;;14.13;;
55706;SDS011;41608;45.384;20.394;2022-11-20T03:02:32;16.50;;;11.43;;
55706;SDS011;41608;45.384;20.394;2022-11-20T03:04:58;24.52;;;12.75;;
55706;SDS011;41608;45.384;20.394;2022-11-20T03:07:25;20.17;;;13.85;;
55706;SDS011;41608;45.384;20.394;2022-11-20T03:09:51;17.60;;;11.68;;
55706;SDS011;41608;45.384;20.394;2022-11-20T03:12:17;27.65;;;14.50;;
55706;SDS011;41608;45.384;20.394;2022-11-20T03:14:43;17.25;;;11.57;;
55706;SDS011;41608;45.384;20.394;2022-11-20T03:17:09;20.23;;;12.57;;
55706;SDS011;41608;45.384;20.394;2022-11-20T03:19:35;19.50;;;13.25;;
55706;SDS011;41608;45.384;20.394;2022-11-20T03:22:01;19.10;;;11.88;;
55706;SDS011;41608;45.384;20.394;2022-11-20T03:24:28;16.98;;;8.48;;
55706;SDS011;41608;45.384;20.394;2022-11-20T03:26:54;16.88;;;10.75;;
55706;SDS011;41608;45.384;20.394;2022-11-20T03:29:20;14.85;;;8.68;;
55706;SDS011;41608;45.384;20.394;2022-11-20T03:31:46;19.00;;;13.60;;
55706;SDS011;41608;45.384;20.394;2022-11-20T03:34:12;18.30;;;12.63;;
55706;SDS011;41608;45.384;20.394;2022-11-20T03:36:39;15.13;;;10.05;;
55706;SDS011;41608;45.384;20.394;2022-11-20T03:39:05;17.50;;;10.52;;
55706;SDS011;41608;45.384;20.394;2022-11-20T03:41:35;12.60;;;7.28;;
55706;SDS011;41608;45.384;20.394;2022-11-20T03:44:02;14.50;;;10.38;;
55706;SDS011;41608;45.384;20.394;2022-11-20T03:46:28;21.55;;;12.60;;
55706;SDS011;41608;45.384;20.394;2022-11-20T03:48:55;16.27;;;9.48;;
55706;SDS011;41608;45.384;20.394;2022-11-20T03:51:22;13.38;;;9.32;;
55706;SDS011;41608;45.384;20.394;2022-11-20T03:53:49;10.98;;;7.90;;
55706;SDS011;41608;45.384;20.394;2022-11-20T03:56:16;12.75;;;7.88;;
55706;SDS011;41608;45.384;20.394;2022-11-20T03:58:42;10.70;;;8.38;;
55706;SDS011;41608;45.384;20.394;2022-11-20T04:01:13;14.50;;;8.88;;
55706;SDS011;41608;45.384;20.394;2022-11-20T04:03:40;11.05;;;7.25;;
55706;SDS011;41608;45.384;20.394;2022-11-20T04:06:07;5.78;;;4.43;;
55706;SDS011;41608;45.384;20.394;2022-11-20T04:08:34;16.63;;;8.95;;
55706;SDS011;41608;45.384;20.394;2022-11-20T04:11:13;11.10;;;7.00;;
55706;SDS011;41608;45.384;20.394;2022-11-20T04:13:40;11.60;;;7.85;;
55706;SDS011;41608;45.384;20.394;2022-11-20T04:16:07;15.35;;;6.93;;
55706;SDS011;41608;45.384;20.394;2022-11-20T04:18:33;13.48;;;8.18;;
55706;SDS011;41608;45.384;20.394;2022-11-20T04:21:00;13.82;;;9.20;;
55706;SDS011;41608;45.384;20.394;2022-11-20T04:23:26;12.95;;;8.55;;
55706;SDS011;41608;45.384;20.394;2022-11-20T04:25:52;17.48;;;10.02;;
55706;SDS011;41608;45.384;20.394;2022-11-20T04:28:18;15.70;;;9.55;;
55706;SDS011;41608;45.384;20.394;2022-11-20T04:30:44;16.05;;;8.82;;
55706;SDS011;41608;45.384;20.394;2022-11-20T04:33:10;18.10;;;10.73;;
55706;SDS011;41608;45.384;20.394;2022-11-20T04:35:36;15.05;;;9.15;;
55706;SDS011;41608;45.384;20.394;2022-11-20T04:38:03;16.80;;;10.63;;
55706;SDS011;41608;45.384;20.394;2022-11-20T04:40:30;18.23;;;9.93;;
55706;SDS011;41608;45.384;20.394;2022-11-20T04:42:56;21.25;;;11.85;;
55706;SDS011;41608;45.384;20.394;2022-11-20T04:45:22;19.13;;;11.90;;
55706;SDS011;41608;45.384;20.394;2022-11-20T04:47:48;11.77;;;7.28;;
55706;SDS011;41608;45.384;20.394;2022-11-20T04:50:14;14.13;;;8.05;;
55706;SDS011;41608;45.384;20.394;2022-11-20T04:52:40;23.63;;;11.55;;
55706;SDS011;41608;45.384;20.394;2022-11-20T04:55:06;15.40;;;8.13;;
55706;SDS011;41608;45.384;20.394;2022-11-20T04:57:33;16.73;;;9.32;;
55706;SDS011;41608;45.384;20.394;2022-11-20T04:59:59;19.52;;;9.10;;
55706;SDS011;41608;45.384;20.394;2022-11-20T05:02:25;24.60;;;12.77;;
55706;SDS011;41608;45.384;20.394;2022-11-20T05:04:51;14.77;;;8.80;;
55706;SDS011;41608;45.384;20.394;2022-11-20T05:07:17;14.55;;;7.70;;
55706;SDS011;41608;45.384;20.394;2022-11-20T05:09:43;20.42;;;12.05;;
55706;SDS011;41608;45.384;20.394;2022-11-20T05:12:10;23.67;;;13.48;;
55706;SDS011;41608;45.384;20.394;2022-11-20T05:14:36;17.42;;;11.35;;
55706;SDS011;41608;45.384;20.394;2022-11-20T05:17:02;22.50;;;12.70;;
55706;SDS011;41608;45.384;20.394;2022-11-20T05:19:28;31.75;;;19.77;;
55706;SDS011;41608;45.384;20.394;2022-11-20T05:21:54;30.90;;;17.35;;
55706;SDS011;41608;45.384;20.394;2022-11-20T05:24:20;27.05;;;16.83;;
55706;SDS011;41608;45.384;20.394;2022-11-20T05:26:46;28.52;;;17.48;;
55706;SDS011;41608;45.384;20.394;2022-11-20T05:29:13;39.13;;;21.30;;
55706;SDS011;41608;45.384;20.394;2022-11-20T05:31:39;22.92;;;13.20;;
55706;SDS011;41608;45.384;20.394;2022-11-20T05:34:06;22.33;;;12.32;;
55706;SDS011;41608;45.384;20.394;2022-11-20T05:36:32;28.25;;;13.68;;
55706;SDS011;41608;45.384;20.394;2022-11-20T05:38:58;26.08;;;12.27;;
55706;SDS011;41608;45.384;20.394;2022-11-20T05:41:24;33.78;;;18.17;;
55706;SDS011;41608;45.384;20.394;2022-11-20T05:43:51;28.13;;;15.82;;
55706;SDS011;41608;45.384;20.394;2022-11-20T05:46:18;23.85;;;17.23;;
55706;SDS011;41608;45.384;20.394;2022-11-20T05:48:44;29.17;;;14.70;;
55706;SDS011;41608;45.384;20.394;2022-11-20T05:51:12;30.38;;;18.30;;
55706;SDS011;41608;45.384;20.394;2022-11-20T05:53:38;31.30;;;18.08;;
55706;SDS011;41608;45.384;20.394;2022-11-20T05:56:12;21.10;;;12.00;;
55706;SDS011;41608;45.384;20.394;2022-11-20T05:58:39;29.50;;;16.83;;
55706;SDS011;41608;45.384;20.394;2022-11-20T06:01:13;37.88;;;21.83;;
55706;SDS011;41608;45.384;20.394;2022-11-20T06:03:39;23.52;;;11.77;;
55706;SDS011;41608;45.384;20.394;2022-11-20T06:06:07;27.58;;;16.48;;
55706;SDS011;41608;45.384;20.394;2022-11-20T06:08:33;35.45;;;21.92;;
55706;SDS011;41608;45.384;20.394;2022-11-20T06:11:02;26.98;;;13.70;;
55706;SDS011;41608;45.384;20.394;2022-11-20T06:13:29;24.77;;;13.18;;
55706;SDS011;41608;45.384;20.394;2022-11-20T06:15:58;25.55;;;11.98;;
55706;SDS011;41608;45.384;20.394;2022-11-20T06:18:25;22.83;;;12.63;;
55706;SDS011;41608;45.384;20.394;2022-11-20T06:20:58;24.30;;;15.20;;
55706;SDS011;41608;45.384;20.394;2022-11-20T06:23:24;37.78;;;20.55;;
55706;SDS011;41608;45.384;20.394;2022-11-20T06:25:50;25.05;;;14.20;;
55706;SDS011;41608;45.384;20.394;2022-11-20T06:28:16;36.67;;;22.83;;
55706;SDS011;41608;45.384;20.394;2022-11-20T06:30:45;36.40;;;18.83;;
55706;SDS011;41608;45.384;20.394;2022-11-20T06:33:11;39.00;;;23.20;;
55706;SDS011;41608;45.384;20.394;2022-11-20T06:35:37;43.20;;;25.83;;
55706;SDS011;41608;45.384;20.394;2022-11-20T06:38:03;41.40;;;22.38;;
55706;SDS011;41608;45.384;20.394;2022-11-20T06:40:29;40.25;;;22.95;;
55706;SDS011;41608;45.384;20.394;2022-11-20T06:42:55;37.35;;;22.10;;
55706;SDS011;41608;45.384;20.394;2022-11-20T06:45:21;29.52;;;17.20;;
55706;SDS011;41608;45.384;20.394;2022-11-20T06:47:47;32.70;;;20.00;;
55706;SDS011;41608;45.384;20.394;2022-11-20T06:50:13;33.63;;;19.65;;
55706;SDS011;41608;45.384;20.394;2022-11-20T06:52:39;37.65;;;23.17;;
55706;SDS011;41608;45.384;20.394;2022-11-20T06:55:05;36.47;;;18.40;;
55706;SDS011;41608;45.384;20.394;2022-11-20T06:57:32;34.08;;;21.67;;
55706;SDS011;41608;45.384;20.394;2022-11-20T06:59:58;37.90;;;24.83;;
55706;SDS011;41608;45.384;20.394;2022-11-20T07:02:24;38.08;;;24.08;;
55706;SDS011;41608;45.384;20.394;2022-11-20T07:04:50;48.17;;;27.38;;
55706;SDS011;41608;45.384;20.394;2022-11-20T07:07:16;29.25;;;17.77;;
55706;SDS011;41608;45.384;20.394;2022-11-20T07:09:42;36.22;;;20.95;;
55706;SDS011;41608;45.384;20.394;2022-11-20T07:12:08;21.05;;;14.52;;
55706;SDS011;41608;45.384;20.394;2022-11-20T07:14:34;36.70;;;19.75;;
55706;SDS011;41608;45.384;20.394;2022-11-20T07:17:00;37.33;;;23.13;;
55706;SDS011;41608;45.384;20.394;2022-11-20T07:19:26;38.00;;;22.88;;
55706;SDS011;41608;45.384;20.394;2022-11-20T07:21:52;28.10;;;15.82;;
55706;SDS011;41608;45.384;20.394;2022-11-20T07:24:18;35.80;;;18.90;;
55706;SDS011;41608;45.384;20.394;2022-11-20T07:26:47;23.48;;;14.27;;
55706;SDS011;41608;45.384;20.394;2022-11-20T07:29:16;47.78;;;26.15;;
55706;SDS011;41608;45.384;20.394;2022-11-20T07:31:42;40.00;;;22.92;;
55706;SDS011;41608;45.384;20.394;2022-11-20T07:34:08;43.20;;;24.58;;
55706;SDS011;41608;45.384;20.394;2022-11-20T07:36:35;41.97;;;24.23;;
55706;SDS011;41608;45.384;20.394;2022-11-20T07:39:01;25.17;;;16.55;;
55706;SDS011;41608;45.384;20.394;2022-11-20T07:41:27;34.38;;;19.38;;
55706;SDS011;41608;45.384;20.394;2022-11-20T07:43:54;46.65;;;30.15;;
55706;SDS011;41608;45.384;20.394;2022-11-20T07:46:20;55.53;;;30.48;;
55706;SDS011;41608;45.384;20.394;2022-11-20T07:48:46;43.53;;;25.88;;
55706;SDS011;41608;45.384;20.394;2022-11-20T07:51:12;34.53;;;19.05;;
55706;SDS011;41608;45.384;20.394;2022-11-20T07:53:38;35.67;;;20.90;;
55706;SDS011;41608;45.384;20.394;2022-11-20T07:56:04;27.52;;;17.88;;
55706;SDS011;41608;45.384;20.394;2022-11-20T07:58:31;24.13;;;13.98;;
55706;SDS011;41608;45.384;20.394;2022-11-20T08:01:03;41.38;;;22.55;;
55706;SDS011;41608;45.384;20.394;2022-11-20T08:03:29;32.05;;;18.42;;
55706;SDS011;41608;45.384;20.394;2022-11-20T08:05:58;32.08;;;19.50;;
55706;SDS011;41608;45.384;20.394;2022-11-20T08:08:24;44.17;;;23.55;;
55706;SDS011;41608;45.384;20.394;2022-11-20T08:10:50;44.08;;;26.92;;
55706;SDS011;41608;45.384;20.394;2022-11-20T08:13:16;35.20;;;20.80;;
55706;SDS011;41608;45.384;20.394;2022-11-20T08:16:01;34.45;;;18.23;;
55706;SDS011;41608;45.384;20.394;2022-11-20T08:18:27;35.00;;;20.58;;
55706;SDS011;41608;45.384;20.394;2022-11-20T08:20:53;43.92;;;26.98;;
55706;SDS011;41608;45.384;20.394;2022-11-20T08:23:19;68.28;;;39.30;;
55706;SDS011;41608;45.384;20.394;2022-11-20T08:25:48;36.92;;;21.77;;
55706;SDS011;41608;45.384;20.394;2022-11-20T08:28:14;36.65;;;24.40;;
55706;SDS011;41608;45.384;20.394;2022-11-20T08:30:40;47.40;;;27.58;;
55706;SDS011;41608;45.384;20.394;2022-11-20T08:33:07;46.78;;;26.88;;
55706;SDS011;41608;45.384;20.394;2022-11-20T08:35:36;35.50;;;19.83;;
55706;SDS011;41608;45.384;20.394;2022-11-20T08:38:03;37.90;;;24.15;;
55706;SDS011;41608;45.384;20.394;2022-11-20T08:40:29;44.50;;;26.35;;
55706;SDS011;41608;45.384;20.394;2022-11-20T08:42:55;26.00;;;15.07;;
55706;SDS011;41608;45.384;20.394;2022-11-20T08:45:22;36.38;;;23.92;;
55706;SDS011;41608;45.384;20.394;2022-11-20T08:47:48;39.20;;;18.17;;
55706;SDS011;41608;45.384;20.394;2022-11-20T08:50:14;34.60;;;20.83;;
55706;SDS011;41608;45.384;20.394;2022-11-20T08:52:41;28.63;;;17.67;;
55706;SDS011;41608;45.384;20.394;2022-11-20T08:55:07;44.53;;;28.70;;
55706;SDS011;41608;45.384;20.394;2022-11-20T08:57:34;41.33;;;24.88;;
55706;SDS011;41608;45.384;20.394;2022-11-20T09:00:00;32.80;;;18.75;;
55706;SDS011;41608;45.384;20.394;2022-11-20T09:02:26;42.50;;;25.02;;
55706;SDS011;41608;45.384;20.394;2022-11-20T09:04:52;46.92;;;28.38;;
55706;SDS011;41608;45.384;20.394;2022-11-20T09:07:19;34.47;;;19.88;;
55706;SDS011;41608;45.384;20.394;2022-11-20T09:09:45;24.45;;;15.82;;
55706;SDS011;41608;45.384;20.394;2022-11-20T09:12:11;22.35;;;12.10;;
55706;SDS011;41608;45.384;20.394;2022-11-20T09:14:37;37.70;;;25.08;;
55706;SDS011;41608;45.384;20.394;2022-11-20T09:17:03;21.88;;;13.02;;
55706;SDS011;41608;45.384;20.394;2022-11-20T09:19:29;33.58;;;21.75;;
55706;SDS011;41608;45.384;20.394;2022-11-20T09:21:55;38.85;;;24.20;;
55706;SDS011;41608;45.384;20.394;2022-11-20T09:24:21;34.65;;;21.10;;
55706;SDS011;41608;45.384;20.394;2022-11-20T09:26:47;32.55;;;21.02;;
55706;SDS011;41608;45.384;20.394;2022-11-20T09:29:13;37.65;;;22.15;;
55706;SDS011;41608;45.384;20.394;2022-11-20T09:31:39;17.02;;;10.40;;
55706;SDS011;41608;45.384;20.394;2022-11-20T09:34:05;20.45;;;13.45;;
55706;SDS011;41608;45.384;20.394;2022-11-20T09:36:31;24.00;;;13.15;;
55706;SDS011;41608;45.384;20.394;2022-11-20T09:38:57;36.10;;;23.20;;
55706;SDS011;41608;45.384;20.394;2022-11-20T09:54:18;38.55;;;24.42;;
55706;SDS011;41608;45.384;20.394;2022-11-20T09:56:54;45.15;;;29.27;;
55706;SDS011;41608;45.384;20.394;2022-11-20T09:59:40;33.47;;;20.98;;
55706;SDS011;41608;45.384;20.394;2022-11-20T10:02:13;22.85;;;13.40;;
55706;SDS011;41608;45.384;20.394;2022-11-20T10:04:43;30.95;;;19.05;;
55706;SDS011;41608;45.384;20.394;2022-11-20T10:07:15;32.42;;;19.40;;
55706;SDS011;41608;45.384;20.394;2022-11-20T10:09:49;28.50;;;15.90;;
55706;SDS011;41608;45.384;20.394;2022-11-20T10:25:20;26.55;;;18.15;;
55706;SDS011;41608;45.384;20.394;2022-11-20T10:28:06;19.33;;;13.25;;
55706;SDS011;41608;45.384;20.394;2022-11-20T10:30:40;19.40;;;11.48;;
55706;SDS011;41608;45.384;20.394;2022-11-20T10:33:13;29.77;;;14.13;;
55706;SDS011;41608;45.384;20.394;2022-11-20T10:35:42;28.92;;;18.73;;
55706;SDS011;41608;45.384;20.394;2022-11-20T10:38:15;28.45;;;19.60;;
55706;SDS011;41608;45.384;20.394;2022-11-20T10:40:46;34.13;;;17.70;;
55706;SDS011;41608;45.384;20.394;2022-11-20T10:43:16;29.58;;;19.63;;
55706;SDS011;41608;45.384;20.394;2022-11-20T10:48:22;32.97;;;19.88;;
55706;SDS011;41608;45.384;20.394;2022-11-20T10:56:04;20.70;;;14.07;;
55706;SDS011;41608;45.384;20.394;2022-11-20T10:58:43;29.23;;;20.10;;
55706;SDS011;41608;45.384;20.394;2022-11-20T11:01:17;30.15;;;20.17;;
55706;SDS011;41608;45.384;20.394;2022-11-20T11:03:44;30.70;;;18.10;;
55706;SDS011;41608;45.384;20.394;2022-11-20T11:06:12;19.77;;;11.63;;
55706;SDS011;41608;45.384;20.394;2022-11-20T11:08:41;39.50;;;22.65;;
55706;SDS011;41608;45.384;20.394;2022-11-20T11:13:37;41.53;;;24.70;;
55706;SDS011;41608;45.384;20.394;2022-11-20T11:16:03;27.90;;;17.88;;
55706;SDS011;41608;45.384;20.394;2022-11-20T11:18:33;34.75;;;20.70;;
55706;SDS011;41608;45.384;20.394;2022-11-20T11:21:00;19.00;;;13.07;;
55706;SDS011;41608;45.384;20.394;2022-11-20T11:25:59;20.35;;;11.43;;
55706;SDS011;41608;45.384;20.394;2022-11-20T11:28:26;29.40;;;17.27;;
55706;SDS011;41608;45.384;20.394;2022-11-20T11:30:53;29.08;;;18.17;;
55706;SDS011;41608;45.384;20.394;2022-11-20T11:33:20;18.55;;;11.73;;
55706;SDS011;41608;45.384;20.394;2022-11-20T11:35:50;27.85;;;18.08;;
55706;SDS011;41608;45.384;20.394;2022-11-20T11:40:59;30.33;;;17.38;;
55706;SDS011;41608;45.384;20.394;2022-11-20T11:43:26;27.27;;;15.38;;
55706;SDS011;41608;45.384;20.394;2022-11-20T11:46:25;32.70;;;17.85;;
55706;SDS011;41608;45.384;20.394;2022-11-20T11:51:39;41.28;;;23.80;;
55706;SDS011;41608;45.384;20.394;2022-11-20T11:54:12;30.10;;;17.38;;
55706;SDS011;41608;45.384;20.394;2022-11-20T11:56:40;36.72;;;21.45;;
55706;SDS011;41608;45.384;20.394;2022-11-20T11:59:06;31.38;;;17.38;;
55706;SDS011;41608;45.384;20.394;2022-11-20T12:01:41;34.67;;;19.10;;
55706;SDS011;41608;45.384;20.394;2022-11-20T12:04:20;35.25;;;22.48;;
55706;SDS011;41608;45.384;20.394;2022-11-20T12:06:53;27.75;;;15.80;;
55706;SDS011;41608;45.384;20.394;2022-11-20T12:09:24;35.75;;;21.88;;
55706;SDS011;41608;45.384;20.394;2022-11-20T12:11:54;20.60;;;11.77;;
55706;SDS011;41608;45.384;20.394;2022-11-20T12:16:57;38.47;;;21.83;;
55706;SDS011;41608;45.384;20.394;2022-11-20T12:19:23;36.85;;;23.30;;
55706;SDS011;41608;45.384;20.394;2022-11-20T12:24:32;38.60;;;17.95;;
55706;SDS011;41608;45.384;20.394;2022-11-20T12:43:37;40.35;;;24.13;;
55706;SDS011;41608;45.384;20.394;2022-11-20T12:49:11;42.83;;;29.25;;
55706;SDS011;41608;45.384;20.394;2022-11-20T12:59:47;42.97;;;25.23;;
55706;SDS011;41608;45.384;20.394;2022-11-20T13:02:23;45.08;;;26.92;;
55706;SDS011;41608;45.384;20.394;2022-11-20T13:04:56;43.67;;;23.98;;
55706;SDS011;41608;45.384;20.394;2022-11-20T13:07:24;37.70;;;19.02;;
55706;SDS011;41608;45.384;20.394;2022-11-20T13:09:51;37.28;;;23.00;;
55706;SDS011;41608;45.384;20.394;2022-11-20T13:12:32;46.00;;;30.02;;
55706;SDS011;41608;45.384;20.394;2022-11-20T13:15:08;49.47;;;30.50;;
55706;SDS011;41608;45.384;20.394;2022-11-20T13:17:59;42.22;;;24.70;;
55706;SDS011;41608;45.384;20.394;2022-11-20T13:20:26;35.78;;;21.52;;
55706;SDS011;41608;45.384;20.394;2022-11-20T13:22:53;30.27;;;17.92;;
55706;SDS011;41608;45.384;20.394;2022-11-20T13:25:27;31.55;;;20.25;;
55706;SDS011;41608;45.384;20.394;2022-11-20T13:27:54;42.85;;;23.95;;
55706;SDS011;41608;45.384;20.394;2022-11-20T13:30:27;46.47;;;22.40;;
55706;SDS011;41608;45.384;20.394;2022-11-20T13:32:58;31.25;;;19.95;;
55706;SDS011;41608;45.384;20.394;2022-11-20T13:35:32;38.17;;;22.42;;
55706;SDS011;41608;45.384;20.394;2022-11-20T13:40:35;40.88;;;24.38;;
55706;SDS011;41608;45.384;20.394;2022-11-20T13:45:57;40.45;;;25.58;;
55706;SDS011;41608;45.384;20.394;2022-11-20T13:48:24;42.80;;;26.90;;
55706;SDS011;41608;45.384;20.394;2022-11-20T13:55:54;28.35;;;16.67;;
55706;SDS011;41608;45.384;20.394;2022-11-20T14:00:57;30.38;;;18.00;;
55706;SDS011;41608;45.384;20.394;2022-11-20T14:03:24;33.75;;;18.70;;
55706;SDS011;41608;45.384;20.394;2022-11-20T14:08:24;36.53;;;22.73;;
55706;SDS011;41608;45.384;20.394;2022-11-20T14:10:51;36.95;;;22.88;;
55706;SDS011;41608;45.384;20.394;2022-11-20T14:13:27;29.73;;;18.42;;
55706;SDS011;41608;45.384;20.394;2022-11-20T14:15:56;25.02;;;15.10;;
55706;SDS011;41608;45.384;20.394;2022-11-20T14:18:22;33.70;;;16.88;;
55706;SDS011;41608;45.384;20.394;2022-11-20T14:20:48;24.45;;;16.65;;
55706;SDS011;41608;45.384;20.394;2022-11-20T14:23:23;38.70;;;23.88;;
55706;SDS011;41608;45.384;20.394;2022-11-20T14:25:49;32.13;;;19.05;;
55706;SDS011;41608;45.384;20.394;2022-11-20T14:28:21;30.23;;;17.20;;
55706;SDS011;41608;45.384;20.394;2022-11-20T14:30:50;33.05;;;21.67;;
55706;SDS011;41608;45.384;20.394;2022-11-20T14:33:16;30.67;;;17.92;;
55706;SDS011;41608;45.384;20.394;2022-11-20T14:35:47;33.40;;;20.40;;
55706;SDS011;41608;45.384;20.394;2022-11-20T14:38:14;41.45;;;26.75;;
55706;SDS011;41608;45.384;20.394;2022-11-20T14:40:40;40.90;;;25.73;;
55706;SDS011;41608;45.384;20.394;2022-11-20T14:43:26;36.25;;;22.45;;
55706;SDS011;41608;45.384;20.394;2022-11-20T14:45:56;40.83;;;26.23;;
55706;SDS011;41608;45.384;20.394;2022-11-20T14:48:24;40.13;;;22.73;;
55706;SDS011;41608;45.384;20.394;2022-11-20T14:50:52;30.42;;;19.13;;
55706;SDS011;41608;45.384;20.394;2022-11-20T14:53:22;29.42;;;16.67;;
55706;SDS011;41608;45.384;20.394;2022-11-20T14:55:53;29.83;;;18.08;;
55706;SDS011;41608;45.384;20.394;2022-11-20T14:58:21;34.28;;;18.35;;
55706;SDS011;41608;45.384;20.394;2022-11-20T15:00:54;33.60;;;21.25;;
55706;SDS011;41608;45.384;20.394;2022-11-20T15:03:21;36.22;;;22.45;;
55706;SDS011;41608;45.384;20.394;2022-11-20T15:05:48;36.25;;;23.70;;
55706;SDS011;41608;45.384;20.394;2022-11-20T15:08:14;35.20;;;22.75;;
55706;SDS011;41608;45.384;20.394;2022-11-20T15:10:50;28.50;;;16.27;;
55706;SDS011;41608;45.384;20.394;2022-11-20T15:13:19;37.60;;;23.05;;
55706;SDS011;41608;45.384;20.394;2022-11-20T15:15:51;22.75;;;13.18;;
55706;SDS011;41608;45.384;20.394;2022-11-20T15:18:21;37.92;;;22.63;;
55706;SDS011;41608;45.384;20.394;2022-11-20T15:20:48;41.70;;;21.90;;
55706;SDS011;41608;45.384;20.394;2022-11-20T15:23:15;41.75;;;23.92;;
55706;SDS011;41608;45.384;20.394;2022-11-20T15:25:45;37.20;;;21.90;;
55706;SDS011;41608;45.384;20.394;2022-11-20T15:28:31;33.17;;;22.92;;
55706;SDS011;41608;45.384;20.394;2022-11-20T15:30:57;39.03;;;25.40;;
55706;SDS011;41608;45.384;20.394;2022-11-20T15:33:23;29.60;;;20.50;;
55706;SDS011;41608;45.384;20.394;2022-11-20T15:35:50;40.67;;;23.70;;
55706;SDS011;41608;45.384;20.394;2022-11-20T15:38:16;37.65;;;20.40;;
55706;SDS011;41608;45.384;20.394;2022-11-20T15:40:42;37.00;;;21.88;;
55706;SDS011;41608;45.384;20.394;2022-11-20T15:43:08;37.28;;;21.60;;
55706;SDS011;41608;45.384;20.394;2022-11-20T15:45:37;32.40;;;20.48;;
55706;SDS011;41608;45.384;20.394;2022-11-20T15:48:04;34.20;;;19.30;;
55706;SDS011;41608;45.384;20.394;2022-11-20T15:50:52;35.33;;;21.60;;
55706;SDS011;41608;45.384;20.394;2022-11-20T15:53:17;36.35;;;22.58;;